La Cygne, Kansas
Current Conditions -  °F | °C
As of 11:53 PM on Thursday 18 Dec 2014 (Local Time) from KIXD Reporting Station
Overcast Overcast  
Wind Chill: 31°   Ceiling: 800
Heat Index: 31°   Visibility: 7mi
Dew Point: 29°   Wind: 3mph
Humidity: 92%   Direction: 150°SSE
Pressure: 30.26"   Gusts: NA
Location:  38.35°N, 94.76°W
Report Text: KIXD 190553Z AUTO 15003KT 7SM OVC008 M01/M02 A3026 RMK AO2 SLP255 T10061017 10000 21006 400061022 51004
Loading
Personal Weather Stations






























Interactive Weather Map New forecast layout! Learn more

10-Day Weather Forecast

Advertisements
Track Severe Weather on mobile